Time;durP1;ratioP1;P1;durP2;ratioP2;P2;SDS_P1;SDS_P2;PMS_P1;PMS_P2;Temp;Humidity;BMP_temperature;BMP_pressure;BME280_temperature;BME280_humidity;BME280_pressure;Samples;Min_cycle;Max_cycle;Signal;HPM_P1;HPM_P2
2023/12/15 00:00:01;;;;;;;39.13;23.92;;;5.40;99.90;;;;;;5091218;28;20036;-46
2023/12/15 00:02:27;;;;;;;39.53;22.85;;;5.40;99.90;;;;;;5077621;28;20707;-49
2023/12/15 00:04:52;;;;;;;36.38;23.30;;;5.40;99.90;;;;;;5093360;28;20093;-45
2023/12/15 00:07:18;;;;;;;37.58;23.20;;;5.40;99.90;;;;;;5090406;28;20405;-47
2023/12/15 00:09:43;;;;;;;36.58;24.00;;;5.40;99.90;;;;;;5093520;28;20044;-46
2023/12/15 00:12:09;;;;;;;39.92;22.38;;;5.40;99.90;;;;;;5093651;28;20040;-45
2023/12/15 00:14:35;;;;;;;36.25;23.58;;;5.40;99.90;;;;;;5093118;28;20457;-46
2023/12/15 00:17:01;;;;;;;39.15;22.60;;;5.40;99.90;;;;;;5075003;28;20469;-46
2023/12/15 00:19:26;;;;;;;37.63;22.38;;;5.40;99.90;;;;;;5091745;28;20079;-45
2023/12/15 00:21:52;;;;;;;39.83;23.10;;;5.40;99.90;;;;;;5091904;28;20071;-46
2023/12/15 00:24:17;;;;;;;40.22;23.92;;;5.40;99.90;;;;;;5092610;28;20416;-43
2023/12/15 00:26:43;;;;;;;43.90;24.83;;;5.40;99.90;;;;;;5092519;28;20445;-43
2023/12/15 00:29:09;;;;;;;36.95;22.20;;;5.40;99.90;;;;;;5091319;28;20040;-42
2023/12/15 00:31:35;;;;;;;42.92;24.40;;;5.40;99.90;;;;;;5092297;28;20040;-42
2023/12/15 00:34:00;;;;;;;39.17;23.98;;;5.40;99.90;;;;;;5074536;28;20516;-42
2023/12/15 00:36:27;;;;;;;43.10;24.75;;;5.50;99.90;;;;;;5091986;28;20044;-43
2023/12/15 00:38:52;;;;;;;40.30;23.83;;;5.50;99.90;;;;;;5085122;28;20127;-42
2023/12/15 00:41:19;;;;;;;38.03;23.17;;;5.50;99.90;;;;;;5088885;28;20078;-43
2023/12/15 00:43:45;;;;;;;40.83;23.98;;;5.50;99.90;;;;;;5092480;28;20076;-42
2023/12/15 00:46:10;;;;;;;46.65;25.25;;;5.50;99.90;;;;;;5090310;28;20485;-43
2023/12/15 00:48:36;;;;;;;41.13;24.73;;;5.50;99.90;;;;;;5091816;28;20086;-43
2023/12/15 00:51:02;;;;;;;39.03;24.65;;;5.50;99.90;;;;;;5090043;28;20036;-42
2023/12/15 00:53:32;;;;;;;41.08;23.95;;;5.50;99.90;;;;;;5089284;28;20040;-42
2023/12/15 00:56:01;;;;;;;44.17;25.15;;;5.50;99.90;;;;;;5088199;28;20051;-42
2023/12/15 00:58:27;;;;;;;46.13;24.27;;;5.60;99.90;;;;;;5091587;28;20040;-43
2023/12/15 01:00:52;;;;;;;39.95;23.85;;;5.50;99.90;;;;;;5093627;28;20036;-44
2023/12/15 01:03:18;;;;;;;42.33;24.17;;;5.60;99.90;;;;;;5093615;28;20113;-42
2023/12/15 01:05:44;;;;;;;40.92;24.30;;;5.60;99.90;;;;;;5092503;28;20032;-45
2023/12/15 01:08:09;;;;;;;45.92;25.77;;;5.60;99.90;;;;;;5092607;28;20123;-45
2023/12/15 01:10:35;;;;;;;47.47;25.00;;;5.60;99.90;;;;;;5089801;28;20136;-44
2023/12/15 01:13:00;;;;;;;35.38;22.65;;;5.60;99.90;;;;;;5084493;28;20040;-43
2023/12/15 01:15:26;;;;;;;40.50;25.35;;;5.60;99.90;;;;;;5091683;28;20032;-43
2023/12/15 01:17:52;;;;;;;41.13;25.10;;;5.60;99.90;;;;;;5091003;28;20287;-43
2023/12/15 01:20:17;;;;;;;46.90;26.08;;;5.70;99.90;;;;;;5090347;28;20393;-43
2023/12/15 01:22:43;;;;;;;43.42;25.73;;;5.70;99.90;;;;;;5090625;28;20032;-44
2023/12/15 01:25:10;;;;;;;43.78;25.40;;;5.70;99.90;;;;;;5090741;28;20051;-43
2023/12/15 01:27:35;;;;;;;50.33;27.45;;;5.80;99.90;;;;;;5086158;28;20401;-43
2023/12/15 01:30:01;;;;;;;47.28;27.23;;;5.80;99.90;;;;;;5090854;28;20035;-43
2023/12/15 01:32:27;;;;;;;49.03;28.02;;;5.70;99.90;;;;;;5091501;28;20055;-43
2023/12/15 01:34:52;;;;;;;45.95;27.23;;;5.70;99.90;;;;;;5090533;28;20492;-43
2023/12/15 01:37:18;;;;;;;45.80;27.25;;;5.80;99.90;;;;;;5089679;28;20040;-43
2023/12/15 01:39:43;;;;;;;46.13;28.35;;;5.80;99.90;;;;;;5090840;28;20032;-42
2023/12/15 01:42:09;;;;;;;47.03;29.02;;;5.80;99.90;;;;;;5090340;28;20032;-44
2023/12/15 01:44:35;;;;;;;48.85;27.85;;;5.90;99.90;;;;;;5090101;28;20525;-43
2023/12/15 01:47:01;;;;;;;48.35;27.98;;;5.90;99.90;;;;;;5057917;28;20142;-43
2023/12/15 01:49:28;;;;;;;52.80;28.55;;;5.90;99.90;;;;;;5088158;28;20043;-45
2023/12/15 01:51:54;;;;;;;47.65;28.15;;;;;;;;;;5090512;28;20066;-43
2023/12/15 01:54:20;;;;;;;55.67;29.73;;;5.90;99.90;;;;;;5090584;28;20125;-43
2023/12/15 01:56:46;;;;;;;51.75;29.30;;;5.90;99.90;;;;;;5090102;28;20485;-43
2023/12/15 01:59:12;;;;;;;44.28;28.60;;;5.90;99.90;;;;;;5089191;28;20040;-44
2023/12/15 02:01:37;;;;;;;53.97;30.30;;;5.90;99.90;;;;;;5087809;28;20085;-45
2023/12/15 02:04:03;;;;;;;57.40;31.02;;;6.00;99.90;;;;;;5072973;28;20093;-42
2023/12/15 02:06:28;;;;;;;47.88;29.75;;;6.00;99.90;;;;;;5092134;28;20073;-43
2023/12/15 02:08:54;;;;;;;50.00;30.27;;;6.00;99.90;;;;;;5090027;28;20554;-43
2023/12/15 02:11:20;;;;;;;53.33;29.92;;;6.00;99.90;;;;;;5089187;28;20043;-42
2023/12/15 02:13:45;;;;;;;52.75;30.33;;;6.00;99.90;;;;;;5086177;28;20108;-43
2023/12/15 02:16:11;;;;;;;57.35;32.17;;;6.00;99.90;;;;;;5088492;28;20758;-43
2023/12/15 02:18:36;;;;;;;56.35;31.25;;;6.10;99.90;;;;;;5089219;28;20492;-42
2023/12/15 02:21:02;;;;;;;55.08;30.50;;;6.00;99.90;;;;;;5088781;28;20048;-43
2023/12/15 02:23:28;;;;;;;51.42;29.23;;;6.10;99.90;;;;;;5089124;28;20036;-43
2023/12/15 02:25:53;;;;;;;49.65;29.20;;;6.00;99.90;;;;;;5089038;28;20036;-43
2023/12/15 02:28:19;;;;;;;46.53;28.83;;;6.00;99.90;;;;;;5088187;28;20120;-43
2023/12/15 02:30:44;;;;;;;48.05;28.77;;;6.10;99.90;;;;;;5088985;28;20425;-44
2023/12/15 02:33:11;;;;;;;52.55;30.48;;;6.00;99.90;;;;;;5091522;28;20201;-43
2023/12/15 02:35:38;;;;;;;58.65;31.35;;;6.10;99.90;;;;;;5087236;28;20048;-43
2023/12/15 02:38:07;;;;;;;62.53;31.48;;;6.10;99.90;;;;;;5088704;28;20066;-43
2023/12/15 02:40:37;;;;;;;54.70;30.70;;;6.10;99.90;;;;;;5087735;28;20040;-43
2023/12/15 02:43:02;;;;;;;62.85;31.60;;;6.10;99.90;;;;;;5088839;28;20397;-42
2023/12/15 02:45:28;;;;;;;62.45;32.35;;;6.10;99.90;;;;;;5088136;28;20036;-44
2023/12/15 02:47:54;;;;;;;66.25;34.00;;;6.10;99.90;;;;;;5088764;28;20055;-43
2023/12/15 02:50:19;;;;;;;60.38;31.80;;;6.10;99.90;;;;;;5092848;28;20554;-45
2023/12/15 02:52:45;;;;;;;54.00;31.27;;;6.10;99.90;;;;;;5090426;28;20424;-46
2023/12/15 02:55:13;;;;;;;67.00;33.63;;;6.20;99.90;;;;;;5092560;28;20039;-44
2023/12/15 02:57:39;;;;;;;64.35;33.50;;;6.10;99.90;;;;;;5089835;28;20036;-43
2023/12/15 03:00:06;;;;;;;66.32;32.83;;;6.20;99.90;;;;;;5091329;28;20378;-45
2023/12/15 03:02:32;;;;;;;66.95;32.30;;;6.10;99.90;;;;;;5092980;28;20478;-43
2023/12/15 03:04:57;;;;;;;71.45;35.25;;;6.20;99.90;;;;;;5091995;28;20055;-43
2023/12/15 03:07:23;;;;;;;72.03;34.03;;;6.20;99.90;;;;;;5090889;28;20786;-43
2023/12/15 03:09:49;;;;;;;69.65;34.08;;;6.20;99.90;;;;;;5094337;28;20094;-44
2023/12/15 03:12:14;;;;;;;69.68;34.92;;;6.30;99.90;;;;;;5091080;28;20044;-45
2023/12/15 03:14:40;;;;;;;66.75;33.78;;;6.30;99.90;;;;;;5092486;28;20055;-43
2023/12/15 03:17:05;;;;;;;69.78;34.10;;;6.30;99.90;;;;;;5090621;28;20048;-44
2023/12/15 03:19:31;;;;;;;73.20;34.75;;;6.30;99.90;;;;;;5089460;28;20055;-44
2023/12/15 03:21:56;;;;;;;80.30;36.47;;;6.30;99.90;;;;;;5092232;28;20047;-42
2023/12/15 03:24:22;;;;;;;83.07;36.75;;;6.30;99.90;;;;;;5091849;28;20355;-44
2023/12/15 03:26:48;;;;;;;81.28;36.55;;;6.30;99.90;;;;;;5091403;28;20038;-43
2023/12/15 03:29:13;;;;;;;77.78;36.30;;;6.30;99.90;;;;;;5091956;28;20081;-43
2023/12/15 03:31:41;;;;;;;88.18;36.65;;;6.30;99.90;;;;;;5076226;28;20056;-43
2023/12/15 03:34:07;;;;;;;86.93;38.35;;;6.30;99.90;;;;;;5092569;28;20043;-42
2023/12/15 03:36:38;;;;;;;87.18;37.28;;;6.30;99.90;;;;;;5091036;28;20036;-43
2023/12/15 03:39:07;;;;;;;91.53;38.67;;;6.40;99.90;;;;;;5091341;28;20040;-43
2023/12/15 03:41:33;;;;;;;90.47;41.17;;;6.30;99.90;;;;;;5089484;28;20059;-43
2023/12/15 03:43:58;;;;;;;98.00;40.78;;;6.40;99.90;;;;;;5092258;28;20036;-42
2023/12/15 03:46:24;;;;;;;90.22;39.95;;;6.30;99.90;;;;;;5091293;28;20479;-42
2023/12/15 03:48:50;;;;;;;96.40;39.90;;;6.40;99.90;;;;;;5091419;28;20032;-42
2023/12/15 03:51:15;;;;;;;89.53;40.45;;;6.40;99.90;;;;;;5090381;28;20032;-43
2023/12/15 03:53:41;;;;;;;95.75;41.65;;;6.40;99.90;;;;;;5091576;28;20403;-43
2023/12/15 03:56:07;;;;;;;116.40;42.90;;;6.40;99.90;;;;;;5091499;28;20473;-43
2023/12/15 03:58:33;;;;;;;97.80;42.22;;;6.50;99.90;;;;;;5090432;28;20042;-44
2023/12/15 04:00:59;;;;;;;100.28;40.13;;;6.40;99.90;;;;;;5089584;28;20114;-42
2023/12/15 04:03:25;;;;;;;94.15;40.88;;;;;;;;;;5090263;28;20040;-43
2023/12/15 04:05:50;;;;;;;100.22;41.25;;;6.50;99.90;;;;;;5090775;28;20043;-43
2023/12/15 04:08:16;;;;;;;104.18;42.38;;;6.50;99.90;;;;;;5090170;28;20366;-44
2023/12/15 04:10:41;;;;;;;103.10;41.88;;;6.50;99.90;;;;;;5090454;28;20036;-43
2023/12/15 04:13:07;;;;;;;110.78;43.92;;;6.50;99.90;;;;;;5090589;28;20087;-44
2023/12/15 04:15:33;;;;;;;105.78;42.63;;;6.50;99.90;;;;;;5076243;28;20078;-44
2023/12/15 04:18:03;;;;;;;98.32;41.40;;;6.50;99.90;;;;;;5090501;28;20131;-43
2023/12/15 04:20:28;;;;;;;111.47;44.38;;;6.50;99.90;;;;;;5088252;28;20040;-43
2023/12/15 04:22:54;;;;;;;100.75;40.80;;;6.50;99.90;;;;;;5088039;28;20488;-43
2023/12/15 04:25:20;;;;;;;109.63;43.95;;;6.50;99.90;;;;;;5090399;28;20104;-44
2023/12/15 04:27:45;;;;;;;110.43;42.95;;;6.50;99.90;;;;;;5089897;28;20044;-44
2023/12/15 04:30:11;;;;;;;119.20;41.83;;;6.50;99.90;;;;;;5090068;28;20036;-44
2023/12/15 04:32:37;;;;;;;115.75;42.65;;;6.50;99.90;;;;;;5090285;28;20370;-44
2023/12/15 04:35:03;;;;;;;104.65;42.33;;;6.50;99.90;;;;;;5088882;28;20037;-42
2023/12/15 04:37:28;;;;;;;121.57;44.28;;;6.60;99.90;;;;;;5090380;28;20050;-43
2023/12/15 04:39:54;;;;;;;113.55;43.25;;;6.60;99.90;;;;;;5090035;28;20350;-43
2023/12/15 04:42:20;;;;;;;112.55;40.83;;;6.60;99.90;;;;;;5088075;28;20044;-44
2023/12/15 04:44:45;;;;;;;138.32;42.78;;;6.60;99.90;;;;;;5090219;28;20047;-43
2023/12/15 04:47:11;;;;;;;104.00;43.13;;;6.60;99.90;;;;;;5090130;28;20046;-43
2023/12/15 04:49:38;;;;;;;115.63;43.42;;;6.60;99.90;;;;;;5090192;28;20039;-43
2023/12/15 04:52:04;;;;;;;114.28;43.42;;;6.60;99.90;;;;;;5088731;28;20082;-43
2023/12/15 04:54:29;;;;;;;114.32;42.80;;;6.60;99.90;;;;;;5089814;28;20040;-43
2023/12/15 04:56:55;;;;;;;111.57;42.42;;;6.70;99.90;;;;;;5089507;28;20496;-43
2023/12/15 04:59:20;;;;;;;109.55;42.97;;;6.70;99.90;;;;;;5089560;28;20051;-43
2023/12/15 05:01:46;;;;;;;102.03;41.58;;;6.70;99.90;;;;;;5074857;28;20430;-43
2023/12/15 05:04:12;;;;;;;109.35;43.13;;;6.70;99.90;;;;;;5089869;28;20461;-43
2023/12/15 05:06:37;;;;;;;111.45;41.55;;;6.70;99.90;;;;;;5089481;28;20055;-43
2023/12/15 05:09:08;;;;;;;115.50;41.97;;;6.70;99.90;;;;;;5087773;28;20040;-42
2023/12/15 05:11:35;;;;;;;143.75;43.67;;;6.70;99.90;;;;;;5086873;28;20044;-42
2023/12/15 05:14:01;;;;;;;111.65;40.22;;;6.70;99.90;;;;;;5071584;28;20067;-43
2023/12/15 05:16:27;;;;;;;112.57;41.70;;;6.70;99.90;;;;;;5090022;28;20496;-42
2023/12/15 05:18:53;;;;;;;116.47;41.78;;;6.70;99.90;;;;;;5093443;28;20075;-45
2023/12/15 05:21:19;;;;;;;104.30;41.42;;;6.70;99.90;;;;;;5088825;28;20068;-44
2023/12/15 05:23:45;;;;;;;104.57;39.92;;;6.80;99.90;;;;;;5089110;28;20089;-44
2023/12/15 05:26:14;;;;;;;116.55;41.60;;;6.70;99.90;;;;;;5074014;28;20040;-43
2023/12/15 05:28:40;;;;;;;103.60;39.13;;;6.70;99.90;;;;;;5088132;28;20040;-43
2023/12/15 05:31:06;;;;;;;106.57;39.53;;;6.80;99.90;;;;;;5089499;28;20042;-43
2023/12/15 05:33:32;;;;;;;109.20;39.13;;;6.80;99.90;;;;;;5089189;28;20501;-43
2023/12/15 05:35:58;;;;;;;98.68;38.80;;;6.80;99.90;;;;;;5088892;28;20066;-43
2023/12/15 05:38:23;;;;;;;106.60;38.67;;;6.90;99.90;;;;;;5089376;28;20059;-45
2023/12/15 05:40:49;;;;;;;110.90;39.88;;;6.80;99.90;;;;;;5071456;28;20040;-44
2023/12/15 05:43:14;;;;;;;114.15;40.03;;;6.80;99.90;;;;;;5070006;28;20130;-44
2023/12/15 05:45:40;;;;;;;111.50;39.22;;;6.90;99.90;;;;;;5088381;28;20041;-43
2023/12/15 05:48:06;;;;;;;105.82;39.53;;;6.80;99.90;;;;;;5086734;28;20037;-43
2023/12/15 05:50:31;;;;;;;125.75;39.85;;;6.90;99.90;;;;;;5088453;28;20097;-44
2023/12/15 05:52:57;;;;;;;108.90;40.40;;;6.80;99.90;;;;;;5089507;28;20032;-44
2023/12/15 05:55:22;;;;;;;119.13;41.20;;;6.80;99.90;;;;;;5088222;28;20073;-44
2023/12/15 05:57:48;;;;;;;109.60;40.95;;;6.90;99.90;;;;;;5089223;28;20430;-44
2023/12/15 06:00:14;;;;;;;106.95;40.67;;;6.90;99.90;;;;;;5088787;28;21303;-44
2023/12/15 06:02:40;;;;;;;115.70;40.47;;;6.90;99.90;;;;;;5089091;28;20033;-45
2023/12/15 06:05:06;;;;;;;115.28;41.50;;;6.90;99.90;;;;;;5089258;28;20040;-44
2023/12/15 06:07:33;;;;;;;104.18;39.25;;;6.80;99.90;;;;;;5089687;28;20434;-43
2023/12/15 06:09:59;;;;;;;107.75;39.45;;;6.90;99.90;;;;;;5087952;28;20048;-43
2023/12/15 06:12:25;;;;;;;100.65;40.75;;;6.90;99.90;;;;;;5088054;28;20036;-43
2023/12/15 06:14:50;;;;;;;93.97;38.55;;;6.90;99.90;;;;;;5069534;28;20040;-44
2023/12/15 06:17:16;;;;;;;122.05;41.50;;;6.90;99.90;;;;;;5087616;28;20052;-43
2023/12/15 06:19:42;;;;;;;114.05;40.88;;;6.90;99.90;;;;;;5088894;28;20111;-43
2023/12/15 06:22:07;;;;;;;115.60;41.00;;;6.90;99.90;;;;;;5091467;28;20558;-44
2023/12/15 06:24:33;;;;;;;119.78;38.88;;;6.80;99.90;;;;;;5089677;28;20058;-45
2023/12/15 06:26:58;;;;;;;116.32;38.95;;;6.90;99.90;;;;;;5092611;28;20500;-44
2023/12/15 06:29:24;;;;;;;107.88;40.35;;;7.00;99.90;;;;;;5093104;28;20032;-45
2023/12/15 06:31:50;;;;;;;112.35;41.10;;;6.90;99.90;;;;;;5092842;28;20048;-43
2023/12/15 06:34:15;;;;;;;126.28;41.55;;;6.90;99.90;;;;;;5089511;28;20131;-47
2023/12/15 06:36:41;;;;;;;101.25;39.83;;;6.90;99.90;;;;;;5092825;28;20039;-43
2023/12/15 06:39:07;;;;;;;113.10;41.50;;;6.90;99.90;;;;;;5092852;28;20036;-43
2023/12/15 06:41:33;;;;;;;121.05;41.70;;;6.90;99.90;;;;;;5092743;28;20032;-44
2023/12/15 06:43:59;;;;;;;104.47;39.97;;;6.90;99.90;;;;;;5093146;28;20105;-43
2023/12/15 06:46:25;;;;;;;108.20;39.42;;;6.90;99.90;;;;;;5089795;28;20058;-43
2023/12/15 06:48:51;;;;;;;106.30;39.88;;;6.80;99.90;;;;;;5090090;28;20040;-43
2023/12/15 06:51:17;;;;;;;105.63;38.13;;;6.70;99.90;;;;;;5091240;28;20089;-44
2023/12/15 06:53:42;;;;;;;102.93;40.50;;;6.90;99.90;;;;;;5092031;28;20048;-44
2023/12/15 06:56:08;;;;;;;110.10;39.47;;;6.90;99.90;;;;;;5092908;28;20110;-44
2023/12/15 06:58:34;;;;;;;117.80;41.15;;;6.80;99.90;;;;;;5092236;28;20040;-44
2023/12/15 07:01:00;;;;;;;99.30;38.88;;;6.80;99.90;;;;;;5073525;28;20036;-43
2023/12/15 07:03:25;;;;;;;115.78;39.78;;;6.80;99.90;;;;;;5090992;28;20221;-43
2023/12/15 07:05:51;;;;;;;103.53;37.60;;;6.80;99.90;;;;;;5093135;28;20036;-44
2023/12/15 07:08:16;;;;;;;98.20;37.22;;;6.70;99.90;;;;;;5092513;28;20473;-43
2023/12/15 07:10:42;;;;;;;98.88;37.80;;;6.80;99.90;;;;;;5092136;28;20043;-43
2023/12/15 07:13:08;;;;;;;106.35;37.28;;;6.70;99.90;;;;;;5092550;28;20449;-46
2023/12/15 07:15:34;;;;;;;90.57;35.45;;;6.70;99.90;;;;;;5092150;28;20043;-43
2023/12/15 07:18:00;;;;;;;89.20;35.88;;;6.70;99.90;;;;;;5091099;28;20036;-44
2023/12/15 07:20:25;;;;;;;88.70;36.13;;;6.70;99.90;;;;;;5089591;28;20492;-45
2023/12/15 07:22:51;;;;;;;103.15;38.50;;;6.80;99.90;;;;;;5091271;28;20078;-43
2023/12/15 07:25:18;;;;;;;102.47;37.80;;;6.80;99.90;;;;;;5092128;28;20036;-43
2023/12/15 07:27:43;;;;;;;98.13;35.72;;;6.70;99.90;;;;;;5093883;28;20351;-46
2023/12/15 07:30:09;;;;;;;90.45;36.05;;;6.80;99.90;;;;;;5092093;28;20381;-44
2023/12/15 07:32:35;;;;;;;88.28;35.92;;;6.70;99.90;;;;;;5091442;28;20048;-45
2023/12/15 07:35:01;;;;;;;91.25;35.42;;;6.70;99.90;;;;;;5092489;28;20157;-45
2023/12/15 07:37:26;;;;;;;101.95;36.15;;;6.70;99.90;;;;;;5091231;28;20068;-44
2023/12/15 07:39:54;;;;;;;98.10;35.50;;;6.70;99.90;;;;;;5090238;28;20074;-43
2023/12/15 07:42:20;;;;;;;92.00;34.75;;;6.70;99.90;;;;;;5089092;28;20063;-43
2023/12/15 07:44:45;;;;;;;89.85;35.95;;;6.80;99.90;;;;;;5091490;28;20028;-43
2023/12/15 07:47:11;;;;;;;91.40;33.80;;;6.70;99.90;;;;;;5090873;28;20050;-44
2023/12/15 07:49:37;;;;;;;84.65;34.17;;;6.70;99.90;;;;;;5091372;28;20090;-45
2023/12/15 07:52:03;;;;;;;99.05;35.47;;;6.70;99.90;;;;;;5091699;28;20040;-46
2023/12/15 07:54:29;;;;;;;86.68;33.22;;;6.70;99.90;;;;;;5090179;28;20071;-44
2023/12/15 07:56:55;;;;;;;94.55;35.08;;;6.70;99.90;;;;;;5091037;28;20071;-44
2023/12/15 07:59:21;;;;;;;81.82;33.10;;;6.80;99.90;;;;;;5087760;28;20036;-46
2023/12/15 08:01:51;;;;;;;104.72;34.78;;;6.70;99.90;;;;;;5091220;28;20036;-47
2023/12/15 08:04:17;;;;;;;91.75;34.50;;;6.80;99.90;;;;;;5090688;28;20036;-44
2023/12/15 08:06:43;;;;;;;79.20;33.67;;;6.70;99.90;;;;;;5087882;28;20028;-43
2023/12/15 08:09:08;;;;;;;79.05;33.25;;;6.80;99.90;;;;;;5090912;28;20447;-43
2023/12/15 08:11:34;;;;;;;88.38;33.53;;;6.90;99.90;;;;;;5092055;28;20393;-43
2023/12/15 08:14:01;;;;;;;81.68;33.75;;;6.90;99.90;;;;;;5090713;28;20157;-45
2023/12/15 08:16:26;;;;;;;79.55;33.05;;;6.90;99.90;;;;;;5072434;28;20482;-42
2023/12/15 08:18:52;;;;;;;80.07;32.15;;;6.90;99.90;;;;;;5089940;28;20085;-45
2023/12/15 08:21:18;;;;;;;76.85;32.28;;;6.90;99.90;;;;;;5089227;28;20385;-42
2023/12/15 08:23:44;;;;;;;77.82;32.63;;;;;;;;;;5090656;28;20115;-44
2023/12/15 08:26:19;;;;;;;68.60;31.52;;;7.00;99.90;;;;;;5090259;28;20123;-45
2023/12/15 08:28:45;;;;;;;83.75;32.75;;;7.10;99.90;;;;;;5094869;28;20051;-44
2023/12/15 08:31:10;;;;;;;83.07;32.55;;;7.10;99.90;;;;;;5091308;28;20489;-44
2023/12/15 08:33:36;;;;;;;66.38;31.13;;;7.10;99.90;;;;;;5090769;28;20173;-44
2023/12/15 08:36:01;;;;;;;74.03;32.03;;;7.10;99.90;;;;;;5090124;28;20489;-44
2023/12/15 08:38:27;;;;;;;74.43;32.35;;;7.10;99.90;;;;;;5090443;28;20028;-44
2023/12/15 08:40:54;;;;;;;74.22;31.98;;;7.10;99.90;;;;;;5090205;28;20059;-43
2023/12/15 08:43:19;;;;;;;66.45;30.88;;;7.10;99.90;;;;;;5089672;28;20524;-47
2023/12/15 08:45:45;;;;;;;67.93;29.92;;;7.20;99.90;;;;;;5089777;28;20036;-44
2023/12/15 08:48:11;;;;;;;71.15;30.45;;;7.20;99.90;;;;;;5090648;28;20047;-45
2023/12/15 08:50:36;;;;;;;75.03;30.98;;;7.20;99.90;;;;;;5086562;28;20057;-44
2023/12/15 08:53:02;;;;;;;75.20;30.73;;;7.30;99.90;;;;;;5056650;28;20080;-44
2023/12/15 08:55:27;;;;;;;60.70;29.25;;;7.30;99.90;;;;;;5088941;28;20044;-43
2023/12/15 08:57:53;;;;;;;70.18;29.90;;;7.30;99.90;;;;;;5087866;28;20212;-43
2023/12/15 09:00:19;;;;;;;66.22;29.25;;;7.30;99.90;;;;;;5092760;28;20069;-44
2023/12/15 09:02:45;;;;;;;73.47;29.23;;;7.30;99.90;;;;;;5091097;28;20120;-43
2023/12/15 09:05:10;;;;;;;74.50;30.05;;;7.40;99.90;;;;;;5091735;28;20146;-44
2023/12/15 09:07:36;;;;;;;64.63;30.20;;;7.30;99.90;;;;;;5090637;28;20127;-46
2023/12/15 09:10:02;;;;;;;66.03;30.55;;;7.50;99.90;;;;;;5092370;28;20044;-47
2023/12/15 09:12:28;;;;;;;64.95;29.40;;;7.50;99.90;;;;;;5091852;28;20738;-44
2023/12/15 09:14:53;;;;;;;65.63;28.60;;;7.50;99.90;;;;;;5090072;28;20091;-43
2023/12/15 09:17:19;;;;;;;66.90;28.42;;;7.50;99.90;;;;;;5090918;28;20028;-45
2023/12/15 09:19:44;;;;;;;61.60;29.38;;;7.60;99.90;;;;;;5088846;28;20129;-43
2023/12/15 09:22:10;;;;;;;60.20;27.92;;;7.60;99.90;;;;;;5089096;28;20047;-43
2023/12/15 09:24:36;;;;;;;59.45;28.08;;;7.60;99.90;;;;;;5088348;28;20135;-44
2023/12/15 09:27:01;;;;;;;52.70;26.73;;;7.60;99.90;;;;;;5089738;28;20051;-43
2023/12/15 09:29:28;;;;;;;62.95;28.50;;;7.60;99.90;;;;;;5087565;28;20035;-45
2023/12/15 09:31:53;;;;;;;56.80;28.40;;;7.60;99.90;;;;;;5070096;28;20048;-45
2023/12/15 09:34:19;;;;;;;58.92;26.80;;;7.60;99.90;;;;;;5089638;28;20343;-43
2023/12/15 09:36:46;;;;;;;50.63;26.40;;;7.70;99.90;;;;;;5070387;28;20201;-44
2023/12/15 09:39:11;;;;;;;54.30;26.42;;;7.60;99.90;;;;;;5087232;28;20409;-43
2023/12/15 09:41:37;;;;;;;55.22;26.17;;;;;;;;;;5080724;28;20036;-43
2023/12/15 09:44:03;;;;;;;51.88;25.08;;;7.70;99.90;;;;;;5089458;28;20040;-44
2023/12/15 09:46:29;;;;;;;49.67;24.10;;;7.70;99.90;;;;;;5089249;28;20366;-44
2023/12/15 09:48:55;;;;;;;49.17;24.48;;;7.70;99.90;;;;;;5090222;28;20048;-42
2023/12/15 09:51:27;;;;;;;54.97;25.10;;;7.80;99.90;;;;;;5089673;28;20466;-44
2023/12/15 09:53:53;;;;;;;53.10;24.50;;;7.80;99.90;;;;;;5091255;28;20047;-44
2023/12/15 09:56:19;;;;;;;49.28;25.10;;;7.80;99.90;;;;;;5090137;28;20559;-43
2023/12/15 09:58:44;;;;;;;52.47;24.98;;;7.80;99.90;;;;;;5087455;28;20040;-44
2023/12/15 10:01:11;;;;;;;50.92;22.88;;;7.80;99.90;;;;;;5088972;28;20078;-44
2023/12/15 10:03:37;;;;;;;47.03;24.05;;;7.80;99.90;;;;;;5089864;28;20139;-44
2023/12/15 10:06:03;;;;;;;45.13;22.45;;;7.90;99.90;;;;;;5088703;28;20490;-44
2023/12/15 10:08:45;;;;;;;58.72;24.13;;;8.00;99.90;;;;;;5085246;28;20127;-45
2023/12/15 10:11:11;;;;;;;49.30;22.10;;;8.00;99.90;;;;;;5089195;28;20499;-44
2023/12/15 10:13:40;;;;;;;50.50;24.08;;;8.00;99.90;;;;;;5093235;28;20070;-43
2023/12/15 10:16:08;;;;;;;51.20;24.23;;;8.00;99.90;;;;;;5084299;28;20114;-42
2023/12/15 10:18:33;;;;;;;46.13;23.10;;;8.10;99.90;;;;;;5086356;28;20040;-44
2023/12/15 10:20:59;;;;;;;49.25;22.48;;;8.10;99.90;;;;;;5089414;28;20032;-48
2023/12/15 10:23:29;;;;;;;47.58;22.52;;;8.10;99.90;;;;;;5089525;28;20471;-45
2023/12/15 10:25:58;;;;;;;45.53;21.17;;;8.20;99.90;;;;;;5088500;28;20085;-46
2023/12/15 10:28:23;;;;;;;46.22;21.35;;;8.30;99.90;;;;;;5085502;28;20424;-44
2023/12/15 10:30:50;;;;;;;38.67;19.98;;;8.40;99.90;;;;;;5086309;28;20047;-44
2023/12/15 10:33:17;;;;;;;49.90;21.92;;;8.50;99.90;;;;;;5088541;28;20066;-44
2023/12/15 10:35:46;;;;;;;46.90;20.42;;;8.50;99.90;;;;;;5086626;28;20048;-45
2023/12/15 10:38:11;;;;;;;;;;;8.50;99.90;;;;;;5086801;28;20085;-44
2023/12/15 10:40:37;;;;;;;41.92;19.60;;;8.60;99.90;;;;;;5089504;28;19920;-44
2023/12/15 10:43:04;;;;;;;47.13;18.60;;;8.60;99.90;;;;;;5088520;28;20122;-44
2023/12/15 10:45:31;;;;;;;43.47;17.73;;;8.60;99.90;;;;;;5089599;28;20612;-44
2023/12/15 10:47:58;;;;;;;38.35;16.95;;;8.60;99.90;;;;;;5088671;28;20150;-44
2023/12/15 10:50:24;;;;;;;38.55;16.20;;;8.70;99.90;;;;;;5089067;28;20044;-45
2023/12/15 10:52:51;;;;;;;42.72;18.27;;;8.60;99.90;;;;;;5088137;28;20127;-43
2023/12/15 10:55:20;;;;;;;35.57;15.90;;;8.60;99.90;;;;;;5088245;28;20076;-45
2023/12/15 10:57:47;;;;;;;37.13;16.90;;;8.60;99.90;;;;;;5088258;28;20514;-45
2023/12/15 11:00:17;;;;;;;43.47;17.10;;;8.60;99.90;;;;;;5089096;28;20113;-46
2023/12/15 11:02:44;;;;;;;37.53;17.67;;;8.70;99.90;;;;;;5089382;28;20524;-44
2023/12/15 11:05:10;;;;;;;39.78;16.45;;;8.70;99.90;;;;;;5088145;28;20087;-44
2023/12/15 11:07:37;;;;;;;34.97;15.63;;;8.70;99.90;;;;;;5084525;28;20052;-43
2023/12/15 11:10:03;;;;;;;33.38;14.88;;;8.70;99.90;;;;;;5088501;28;20119;-47
2023/12/15 11:12:36;;;;;;;34.53;14.80;;;8.90;99.90;;;;;;5086489;28;20059;-44
2023/12/15 11:15:09;;;;;;;41.92;14.85;;;9.00;99.90;;;;;;5088505;28;20066;-44
2023/12/15 11:17:43;;;;;;;34.55;14.07;;;8.90;99.90;;;;;;5091737;28;20063;-44
2023/12/15 11:20:33;;;;;;;39.10;12.80;;;9.10;99.90;;;;;;5089735;28;20044;-44
2023/12/15 11:23:06;;;;;;;32.05;12.43;;;8.90;99.90;;;;;;5090035;28;20119;-44
2023/12/15 11:25:35;;;;;;;35.55;12.60;;;9.10;99.90;;;;;;5089539;28;20033;-45
2023/12/15 11:28:01;;;;;;;34.17;11.75;;;8.90;99.90;;;;;;5087213;28;20040;-43
2023/12/15 11:30:27;;;;;;;36.28;11.98;;;8.90;99.90;;;;;;5092471;28;20090;-44
2023/12/15 11:32:55;;;;;;;43.17;11.75;;;9.00;99.90;;;;;;5091757;28;20528;-44
2023/12/15 11:35:33;;;;;;;38.97;11.40;;;9.00;99.90;;;;;;5092028;28;20105;-43
2023/12/15 11:37:59;;;;;;;36.13;11.15;;;9.00;99.90;;;;;;5091998;28;20039;-44
2023/12/15 11:40:30;;;;;;;36.92;9.82;;;9.00;99.90;;;;;;5072235;28;20048;-47
2023/12/15 11:42:59;;;;;;;35.08;10.52;;;9.00;99.90;;;;;;5088551;28;20466;-44
2023/12/15 11:45:29;;;;;;;31.45;10.00;;;9.00;99.90;;;;;;5090785;28;20481;-45
2023/12/15 11:47:54;;;;;;;36.20;9.98;;;9.30;99.90;;;;;;5090104;28;20044;-44
2023/12/15 11:50:21;;;;;;;33.97;9.63;;;9.10;99.90;;;;;;5088394;28;20036;-44
2023/12/15 11:52:48;;;;;;;31.17;9.55;;;9.40;99.90;;;;;;5085513;28;20056;-44
2023/12/15 11:55:15;;;;;;;24.17;8.63;;;9.20;99.90;;;;;;5089878;28;20055;-45
2023/12/15 11:57:40;;;;;;;34.33;9.45;;;9.20;99.90;;;;;;5085652;28;20040;-46
2023/12/15 12:00:07;;;;;;;30.13;9.43;;;9.20;99.90;;;;;;5082308;28;20029;-46
2023/12/15 12:02:35;;;;;;;33.47;9.75;;;9.20;99.90;;;;;;5088551;28;20036;-43
2023/12/15 12:05:02;;;;;;;32.60;9.48;;;9.20;99.90;;;;;;5088246;28;20040;-45
2023/12/15 12:07:28;;;;;;;28.58;8.80;;;9.20;99.90;;;;;;5092397;28;20104;-44
2023/12/15 12:09:53;;;;;;;33.10;8.48;;;9.10;99.90;;;;;;5092407;28;20056;-44
2023/12/15 12:12:19;;;;;;;29.02;8.73;;;9.10;99.90;;;;;;5092338;28;20074;-43
2023/12/15 12:14:44;;;;;;;38.78;8.90;;;9.10;99.90;;;;;;5091364;28;20043;-44
2023/12/15 12:17:10;;;;;;;32.08;7.63;;;9.00;99.90;;;;;;5083024;28;20029;-45
2023/12/15 12:19:43;;;;;;;30.42;8.77;;;9.00;99.90;;;;;;5090958;28;20048;-48
2023/12/15 12:22:10;;;;;;;30.10;7.70;;;8.90;99.90;;;;;;5091757;28;20040;-48
2023/12/15 12:24:37;;;;;;;30.02;8.43;;;8.90;99.90;;;;;;5090766;28;20036;-43
2023/12/15 12:27:05;;;;;;;27.55;7.80;;;8.80;99.90;;;;;;5089086;28;20044;-46
2023/12/15 12:29:31;;;;;;;;;;;8.80;99.90;;;;;;5089035;28;20396;-44